Time;durP1;ratioP1;P1;durP2;ratioP2;P2;SDS_P1;SDS_P2;PMS_P1;PMS_P2;Temp;Humidity;BMP_temperature;BMP_pressure;BME280_temperature;BME280_humidity;BME280_pressure;Samples;Min_cycle;Max_cycle;Signal;HPM_P1;HPM_P2
2022/03/23 00:02:16;;;;;;;3.80;2.17;;;;;;;-3.18;59.77;99737.91;4953870;29;20094;-78
2022/03/23 00:04:42;;;;;;;3.95;2.45;;;;;;;-3.18;59.48;99732.69;4953801;29;20252;-79
2022/03/23 00:07:08;;;;;;;3.17;1.80;;;;;;;-3.27;60.14;99738.09;4921891;29;20035;-79
2022/03/23 00:09:34;;;;;;;6.18;2.50;;;;;;;-3.30;59.71;99738.13;4938860;29;20491;-79
2022/03/23 00:11:59;;;;;;;4.32;2.40;;;;;;;-3.32;59.99;99729.44;4953647;29;20496;-79
2022/03/23 00:14:26;;;;;;;9.05;3.25;;;;;;;-3.26;59.63;99739.78;4953786;29;20055;-80
2022/03/23 00:16:52;;;;;;;6.68;2.25;;;;;;;-3.34;59.76;99723.38;4937751;29;20643;-78
2022/03/23 00:19:17;;;;;;;6.30;2.45;;;;;;;-3.32;59.67;99729.44;4937484;29;20138;-79
2022/03/23 00:21:44;;;;;;;4.05;2.38;;;;;;;-3.33;59.61;99737.31;4953298;29;20050;-80
2022/03/23 00:24:09;;;;;;;10.07;2.75;;;;;;;-3.41;60.21;99729.59;4926222;29;20506;-79
2022/03/23 00:26:36;;;;;;;6.97;2.42;;;;;;;-3.40;60.20;99741.78;4958045;29;20039;-78
2022/03/23 00:29:03;;;;;;;4.07;2.10;;;;;;;-3.42;59.78;99741.81;4957736;29;20114;-80
2022/03/23 00:31:30;;;;;;;7.10;2.85;;;;;;;-3.41;59.81;99740.06;4957823;29;20043;-78
2022/03/23 00:33:57;;;;;;;5.07;2.60;;;;;;;-3.42;60.05;99740.97;4972626;28;20049;-80
2022/03/23 00:36:24;;;;;;;8.27;2.90;;;;;;;-3.43;59.82;99741.81;4956437;29;20053;-79
2022/03/23 00:38:53;;;;;;;7.53;2.63;;;;;;;-3.48;60.13;99743.66;4973985;28;20055;-80
2022/03/23 00:41:20;;;;;;;6.28;2.55;;;;;;;-3.45;59.91;99754.06;4942591;29;20046;-79
2022/03/23 00:43:48;;;;;;;6.60;2.35;;;;;;;-3.46;59.72;99747.09;4940227;29;20063;-80
2022/03/23 00:46:14;;;;;;;6.50;3.08;;;;;;;-3.46;59.87;99742.75;4924621;29;20078;-79
2022/03/23 00:48:42;;;;;;;9.68;2.67;;;;;;;-3.49;59.98;99732.34;4957333;29;20094;-79
2022/03/23 00:51:08;;;;;;;7.72;2.80;;;;;;;-3.44;60.29;99761.88;4957725;29;20051;-79
2022/03/23 00:53:34;;;;;;;8.63;2.80;;;;;;;-3.48;60.30;99746.28;4955678;28;20374;-78
2022/03/23 00:56:01;;;;;;;5.63;2.58;;;;;;;-3.44;60.28;99755.78;4971857;28;20526;-79
2022/03/23 00:58:27;;;;;;;9.68;2.55;;;;;;;-3.42;60.29;99754.88;4939927;29;20051;-79
2022/03/23 01:00:53;;;;;;;8.45;2.90;;;;;;;-3.38;60.21;99755.69;4938634;29;20501;-79
2022/03/23 01:03:19;;;;;;;6.60;2.80;;;;;;;-3.37;59.85;99752.19;4955796;28;20071;-79
2022/03/23 01:05:45;;;;;;;5.53;2.72;;;;;;;-3.34;59.82;99752.16;4955856;29;20094;-78
2022/03/23 01:08:12;;;;;;;5.10;2.55;;;;;;;-3.35;60.04;99763.47;4971681;28;20070;-79
2022/03/23 01:10:38;;;;;;;4.70;3.15;;;;;;;-3.35;59.79;99750.41;4923726;29;20043;-79
2022/03/23 01:13:04;;;;;;;3.92;2.63;;;;;;;-3.33;60.08;99761.69;4956884;29;20054;-79
2022/03/23 01:15:30;;;;;;;4.13;2.60;;;;;;;-3.35;60.07;99760.84;4955768;29;20047;-79
2022/03/23 01:17:56;;;;;;;9.07;2.70;;;;;;;-3.34;59.83;99778.28;4955816;29;20047;-78
2022/03/23 01:20:22;;;;;;;4.35;2.22;;;;;;;-3.46;60.19;99762.78;4955437;29;20054;-81
2022/03/23 01:22:50;;;;;;;7.20;2.60;;;;;;;-3.38;60.18;99771.38;4939434;29;20054;-80
2022/03/23 01:25:18;;;;;;;3.85;2.58;;;;;;;-3.37;59.93;99773.09;4955449;29;20543;-80
2022/03/23 01:27:44;;;;;;;5.32;2.63;;;;;;;-3.29;60.07;99771.22;4956895;29;20043;-80
2022/03/23 01:30:12;;;;;;;6.32;2.95;;;;;;;-3.28;59.78;99756.38;4939630;29;20043;-79
2022/03/23 01:32:40;;;;;;;6.10;2.58;;;;;;;-3.19;59.73;99780.63;4939207;29;20051;-80
2022/03/23 01:35:07;;;;;;;6.88;3.20;;;;;;;-3.18;59.92;99774.50;4955131;29;20124;-79
2022/03/23 01:37:34;;;;;;;5.18;3.05;;;;;;;-3.14;59.40;99769.22;4939165;29;20071;-78
2022/03/23 01:40:03;;;;;;;6.43;3.10;;;;;;;-3.15;59.39;99783.19;4939142;29;20054;-78
2022/03/23 01:42:29;;;;;;;7.55;2.60;;;;;;;-3.32;59.30;99766.03;4939247;29;20507;-79
2022/03/23 01:44:56;;;;;;;6.38;2.95;;;;;;;-3.26;59.21;99779.00;4938915;29;20043;-78
2022/03/23 01:47:24;;;;;;;6.20;3.30;;;;;;;-3.30;58.87;99787.78;4938844;29;20047;-80
2022/03/23 01:49:53;;;;;;;6.80;3.20;;;;;;;-3.34;58.83;99782.66;4954970;29;20043;-79
2022/03/23 01:52:22;;;;;;;4.97;2.97;;;;;;;-3.40;59.19;99783.59;4970962;28;20589;-79
2022/03/23 01:54:49;;;;;;;6.50;2.83;;;;;;;-3.45;59.14;99785.44;4939126;29;20137;-80
2022/03/23 01:57:19;;;;;;;3.30;2.47;;;;;;;-3.51;59.50;99799.44;4923424;29;20083;-79
2022/03/23 01:59:45;;;;;;;20.77;4.55;;;;;;;-3.56;59.24;99788.22;4955048;29;20055;-80
2022/03/23 02:02:11;;;;;;;20.05;4.13;;;;;;;-3.55;59.03;99786.47;4954409;29;20043;-80
2022/03/23 02:04:48;;;;;;;26.02;6.00;;;;;;;-3.61;59.40;99791.78;4937488;29;20046;-79
2022/03/23 02:07:18;;;;;;;21.30;3.90;;;;;;;-3.62;59.03;99801.34;4954076;28;20090;-81
2022/03/23 02:09:46;;;;;;;11.57;3.77;;;;;;;-3.64;59.18;99786.63;4970637;28;20055;-80
2022/03/23 02:12:16;;;;;;;9.38;3.05;;;;;;;-3.72;59.24;99792.81;4938333;29;20054;-78
2022/03/23 02:14:42;;;;;;;43.28;5.10;;;;;;;-3.69;59.34;99797.97;4954376;29;20051;-80
2022/03/23 02:17:08;;;;;;;7.50;3.47;;;;;;;-3.72;59.53;99798.03;4970346;28;20483;-81
2022/03/23 02:19:35;;;;;;;5.20;2.65;;;;;;;-3.75;59.71;99807.69;4954274;29;20101;-81
2022/03/23 02:22:02;;;;;;;15.55;3.10;;;;;;;-3.76;59.51;99806.81;4954170;29;20091;-80
2022/03/23 02:24:30;;;;;;;8.65;2.90;;;;;;;-3.80;59.86;99820.81;4954089;29;20455;-79
2022/03/23 02:26:57;;;;;;;13.88;3.50;;;;;;;-3.76;59.78;99822.47;4955661;29;20047;-79
2022/03/23 02:29:25;;;;;;;12.57;2.90;;;;;;;-3.71;59.84;99819.81;4954244;29;20062;-79
2022/03/23 02:31:51;;;;;;;8.20;2.80;;;;;;;-3.67;60.07;99824.94;4955163;29;20451;-81
2022/03/23 02:34:17;;;;;;;5.63;2.63;;;;;;;-3.66;59.84;99811.00;4922189;29;20051;-81
2022/03/23 02:36:44;;;;;;;7.80;2.92;;;;;;;-3.62;59.60;99817.03;4955102;29;20055;-79
2022/03/23 02:39:10;;;;;;;9.98;3.15;;;;;;;-3.59;59.95;99818.75;4971627;28;20114;-80
2022/03/23 02:41:36;;;;;;;8.63;3.15;;;;;;;-3.51;59.41;99817.75;4972711;28;20564;-80
2022/03/23 02:44:03;;;;;;;12.73;2.92;;;;;;;-3.57;59.34;99816.97;4938951;29;20039;-81
2022/03/23 02:46:35;;;;;;;8.55;2.92;;;;;;;-3.55;59.60;99815.19;4937904;29;20054;-79
2022/03/23 02:49:03;;;;;;;13.90;3.70;;;;;;;-3.54;59.40;99816.91;4955258;29;20035;-79
2022/03/23 02:51:30;;;;;;;18.73;3.78;;;;;;;-3.49;59.43;99821.22;4953870;28;20062;-80
2022/03/23 03:02:35;;;;;;;6.47;3.00;;;;;;;-3.33;58.68;99827.06;4954585;29;20050;-80
2022/03/23 03:05:01;;;;;;;16.23;3.70;;;;;;;-3.27;58.68;99837.41;4969851;28;20047;-79
2022/03/23 03:08:44;;;;;;;4.75;2.60;;;;;;;-3.21;60.39;99831.22;4954904;29;20138;-78
2022/03/23 03:10:15;;;;;;;7.93;2.90;;;;;;;-3.07;59.12;99836.22;4937655;29;20050;-81
2022/03/23 03:12:42;;;;;;;18.40;3.20;;;;;;;-2.99;58.27;99844.81;4921644;29;20050;-80
2022/03/23 03:15:11;;;;;;;3.88;2.58;;;;;;;-2.95;58.22;99843.84;4954449;29;20051;-77
2022/03/23 03:17:37;;;;;;;12.65;3.10;;;;;;;-2.92;57.88;99833.34;4953384;28;20046;-81
2022/03/23 03:20:04;;;;;;;5.70;2.78;;;;;;;-2.81;57.89;99841.88;4936432;29;20499;-78
2022/03/23 03:22:34;;;;;;;5.32;2.85;;;;;;;-2.82;57.22;99840.16;4940533;28;20529;-81
2022/03/23 03:25:01;;;;;;;5.63;2.42;;;;;;;-2.80;57.46;99838.34;4953880;28;20116;-78
2022/03/23 03:27:36;;;;;;;9.77;2.80;;;;;;;-2.64;57.05;99853.78;4951031;29;20389;-78
2022/03/23 03:30:07;;;;;;;3.53;2.38;;;;;;;-2.64;57.12;99843.31;4951542;29;20539;-80
2022/03/23 03:32:33;;;;;;;7.65;2.60;;;;;;;-2.58;57.22;99843.22;4951252;29;20076;-80
2022/03/23 03:34:59;;;;;;;13.00;2.95;;;;;;;-2.48;56.93;99850.00;4935119;29;20074;-79
2022/03/23 03:37:25;;;;;;;14.88;3.35;;;;;;;-2.42;56.73;99849.88;4920395;29;20044;-79
2022/03/23 03:39:51;;;;;;;13.85;4.05;;;;;;;-2.31;56.52;99845.28;4920404;29;20051;-79
2022/03/23 03:42:18;;;;;;;8.63;3.10;;;;;;;-2.23;56.31;99856.47;4935423;29;20115;-79
2022/03/23 03:44:45;;;;;;;5.68;3.05;;;;;;;-2.14;56.19;99838.84;4954704;29;20048;-82
2022/03/23 03:47:11;;;;;;;6.82;3.05;;;;;;;-2.18;55.85;99842.41;4955617;29;20056;-83
2022/03/23 03:49:38;;;;;;;9.93;2.70;;;;;;;-2.08;55.59;99854.44;4922881;29;20060;-82
2022/03/23 03:52:05;;;;;;;7.25;2.85;;;;;;;-1.97;55.26;99848.06;4935419;29;20050;-77
2022/03/23 03:54:31;;;;;;;6.07;2.95;;;;;;;-1.86;55.47;99855.72;4935599;29;20048;-80
2022/03/23 03:56:57;;;;;;;7.38;3.63;;;;;;;-1.86;55.09;99857.47;4934826;29;20068;-81
2022/03/23 03:59:23;;;;;;;5.40;3.35;;;;;;;-1.77;54.86;99852.91;4952981;28;20444;-78
2022/03/23 04:01:49;;;;;;;7.95;3.25;;;;;;;-1.62;54.89;99858.69;4940142;29;20402;-78
2022/03/23 04:04:16;;;;;;;9.23;3.03;;;;;;;-1.52;54.70;99855.84;4950379;29;20104;-77
2022/03/23 04:06:42;;;;;;;10.68;3.30;;;;;;;-1.43;54.19;99854.75;4950051;29;20428;-80
2022/03/23 04:09:08;;;;;;;18.83;3.90;;;;;;;-1.36;53.98;99855.47;4918488;29;20047;-81
2022/03/23 04:11:35;;;;;;;22.65;3.75;;;;;;;-1.31;54.04;99859.75;4966078;28;20075;-79
2022/03/23 04:14:01;;;;;;;9.80;3.50;;;;;;;-1.26;53.43;99852.59;4950300;29;20055;-82
2022/03/23 04:16:27;;;;;;;12.18;3.33;;;;;;;-1.18;53.19;99855.06;4950340;29;20100;-83
2022/03/23 04:18:53;;;;;;;7.47;2.97;;;;;;;-1.27;52.89;99858.75;4950169;29;20048;-83
2022/03/23 04:21:20;;;;;;;8.35;2.35;;;;;;;-1.30;53.11;99850.97;4966258;28;20571;-81
2022/03/23 04:23:45;;;;;;;14.07;2.67;;;;;;;-1.39;52.89;99840.69;4949727;29;20048;-81
2022/03/23 04:26:11;;;;;;;7.53;2.92;;;;;;;-1.33;52.59;99845.78;4918979;29;20040;-81
2022/03/23 04:28:37;;;;;;;7.15;2.90;;;;;;;-1.37;52.58;99844.13;4919553;29;20412;-80
2022/03/23 04:31:03;;;;;;;6.43;2.78;;;;;;;-1.36;52.71;99848.47;4944597;29;20063;-82
2022/03/23 04:33:30;;;;;;;10.82;2.80;;;;;;;-1.50;52.35;99847.94;4933978;29;20125;-80
2022/03/23 04:35:56;;;;;;;14.65;2.60;;;;;;;-1.60;52.60;99846.44;4935876;29;20032;-81
2022/03/23 04:38:21;;;;;;;15.02;3.55;;;;;;;-1.55;52.28;99849.78;4902042;29;20074;-83
2022/03/23 04:40:47;;;;;;;10.57;2.70;;;;;;;-1.58;53.19;99849.84;4919300;29;20044;-79
2022/03/23 04:43:13;;;;;;;4.25;2.33;;;;;;;-1.39;52.91;99848.56;4917899;29;20054;-80
2022/03/23 04:45:40;;;;;;;7.28;2.88;;;;;;;-1.25;52.61;99851.69;4918154;29;20060;-81
2022/03/23 04:48:06;;;;;;;4.22;2.33;;;;;;;-1.17;52.02;99853.28;4917732;29;20419;-80
2022/03/23 04:50:32;;;;;;;7.15;2.88;;;;;;;-1.08;52.09;99853.06;4918978;29;20035;-80
2022/03/23 04:52:57;;;;;;;9.73;2.83;;;;;;;-0.96;51.97;99858.00;4937865;29;20180;-81
2022/03/23 04:55:23;;;;;;;14.20;2.90;;;;;;;-0.88;52.15;99858.69;4956520;29;20059;-83
2022/03/23 04:57:49;;;;;;;7.60;2.83;;;;;;;-0.71;51.80;99860.91;4940736;29;20066;-82
2022/03/23 05:00:17;;;;;;;11.30;3.17;;;;;;;-0.59;51.39;99854.47;4941576;29;20507;-83
2022/03/23 05:02:48;;;;;;;7.68;3.10;;;;;;;-0.39;51.41;99862.66;4934725;29;20049;-84
2022/03/23 05:05:15;;;;;;;7.97;2.90;;;;;;;-0.34;50.83;99863.41;4922510;29;20044;-85
2022/03/23 05:07:43;;;;;;;9.02;3.42;;;;;;;-0.37;50.83;99855.59;4937885;29;20047;-82
2022/03/23 05:10:10;;;;;;;13.13;3.25;;;;;;;-0.33;50.52;99867.75;4937432;29;20503;-84
2022/03/23 05:12:37;;;;;;;8.98;2.70;;;;;;;-0.33;50.82;99862.50;4936982;29;20047;-83
2022/03/23 05:15:05;;;;;;;12.98;3.70;;;;;;;-0.20;50.88;99859.53;4921890;29;20082;-79
2022/03/23 05:17:32;;;;;;;7.00;2.80;;;;;;;-0.11;50.18;99860.13;4953720;29;20055;-81
2022/03/23 05:19:59;;;;;;;14.35;3.70;;;;;;;0.05;50.37;99871.06;4952654;29;20059;-79
2022/03/23 05:22:25;;;;;;;7.13;3.50;;;;;;;-0.09;49.92;99860.09;4931890;29;20068;-81
2022/03/23 05:24:51;;;;;;;8.98;2.92;;;;;;;-0.03;50.30;99862.53;4951788;28;20527;-79
2022/03/23 05:27:16;;;;;;;5.32;3.30;;;;;;;0.16;49.97;99861.09;4951861;29;20071;-78
2022/03/23 05:29:43;;;;;;;7.65;3.00;;;;;;;0.39;49.64;99875.34;4936078;29;20048;-82
2022/03/23 05:32:16;;;;;;;5.70;2.60;;;;;;;0.48;49.13;99875.06;4920155;29;20054;-79
2022/03/23 05:34:46;;;;;;;4.28;2.85;;;;;;;0.47;49.57;99860.19;4935970;29;20221;-79
2022/03/23 05:37:12;;;;;;;7.85;3.10;;;;;;;0.65;48.99;99871.91;4936163;29;20039;-78
2022/03/23 05:39:39;;;;;;;6.93;3.25;;;;;;;0.82;49.40;99876.63;4937305;29;20086;-80
2022/03/23 05:42:07;;;;;;;12.40;3.35;;;;;;;0.97;49.12;99889.31;4952198;29;20050;-86
2022/03/23 05:44:34;;;;;;;8.15;4.07;;;;;;;1.05;48.12;99884.66;4936260;29;20051;-81
2022/03/23 05:47:00;;;;;;;10.90;3.30;;;;;;;1.17;48.71;99884.28;4951162;28;20071;-77
2022/03/23 05:49:27;;;;;;;8.60;3.13;;;;;;;1.37;48.06;99885.38;4952090;29;20149;-80
2022/03/23 05:51:53;;;;;;;7.22;2.97;;;;;;;1.50;47.95;99899.84;4952248;29;20047;-78
2022/03/23 05:54:20;;;;;;;6.80;3.00;;;;;;;1.62;47.48;99888.91;4937332;29;20503;-78
2022/03/23 05:56:46;;;;;;;5.95;2.70;;;;;;;1.79;47.58;99893.56;4951201;29;20133;-81
2022/03/23 05:59:12;;;;;;;7.40;3.47;;;;;;;1.87;47.04;99885.38;4936215;29;20075;-78
2022/03/23 06:01:39;;;;;;;8.57;3.03;;;;;;;2.00;46.53;99891.94;4951111;29;20055;-81
2022/03/23 06:04:05;;;;;;;6.95;2.92;;;;;;;2.16;46.68;99895.72;4936305;29;20075;-79
2022/03/23 06:06:31;;;;;;;6.95;2.78;;;;;;;2.45;46.40;99888.53;4935452;29;20035;-80
2022/03/23 06:08:56;;;;;;;10.60;3.20;;;;;;;2.70;46.17;99891.06;4945261;29;20055;-79
2022/03/23 06:11:22;;;;;;;6.57;3.15;;;;;;;2.79;45.23;99887.22;4958116;29;20059;-78
2022/03/23 06:13:49;;;;;;;7.43;3.00;;;;;;;2.94;45.85;99881.31;4975400;29;20103;-80
2022/03/23 06:16:15;;;;;;;10.80;3.17;;;;;;;2.91;44.35;99899.94;4972881;29;20044;-81
2022/03/23 06:18:41;;;;;;;9.88;3.00;;;;;;;2.66;45.26;99884.19;4925544;29;20146;-79
2022/03/23 06:21:07;;;;;;;4.53;2.90;;;;;;;2.79;45.51;99897.78;4952105;29;20131;-78
2022/03/23 06:23:34;;;;;;;10.13;3.10;;;;;;;2.83;45.00;99899.38;4938436;29;20134;-81
2022/03/23 06:26:01;;;;;;;7.30;2.85;;;;;;;2.96;44.90;99899.72;4955700;29;20131;-80
2022/03/23 06:28:27;;;;;;;8.80;3.17;;;;;;;3.16;44.94;99898.03;4936964;29;20523;-79
2022/03/23 06:30:53;;;;;;;7.50;3.17;;;;;;;3.36;44.85;99904.25;4936582;29;20099;-83
2022/03/23 06:33:19;;;;;;;4.63;2.72;;;;;;;3.39;44.25;99901.50;4935354;29;20047;-79
2022/03/23 06:35:46;;;;;;;7.68;3.05;;;;;;;3.50;44.48;99899.25;4935459;29;20085;-79
2022/03/23 06:38:13;;;;;;;11.90;3.25;;;;;;;3.57;43.93;99902.47;4936049;29;20051;-79
2022/03/23 06:40:39;;;;;;;8.45;2.80;;;;;;;3.44;43.52;99899.50;4935943;29;20074;-79
2022/03/23 06:43:05;;;;;;;14.35;3.53;;;;;;;3.39;43.53;99898.84;4951014;29;20075;-78
2022/03/23 06:45:31;;;;;;;8.90;3.30;;;;;;;3.45;44.08;99903.88;4950789;29;20419;-79
2022/03/23 06:47:57;;;;;;;8.00;3.15;;;;;;;3.62;44.06;99909.31;4935271;29;20039;-79
2022/03/23 06:50:23;;;;;;;5.82;3.00;;;;;;;3.63;44.44;99903.09;4936264;29;20526;-80
2022/03/23 06:52:49;;;;;;;8.20;3.05;;;;;;;3.82;44.17;99908.44;4935953;29;20040;-81
2022/03/23 06:55:15;;;;;;;9.38;3.00;;;;;;;3.89;44.11;99903.75;4950617;29;20067;-78
2022/03/23 06:57:41;;;;;;;9.10;2.80;;;;;;;3.76;43.92;99898.16;4934592;29;20043;-79
2022/03/23 07:00:15;;;;;;;7.10;3.10;;;;;;;3.84;43.89;99908.41;4935724;29;20054;-79
2022/03/23 07:02:46;;;;;;;4.60;2.63;;;;;;;3.88;43.81;99897.63;4934693;29;20040;-80
2022/03/23 07:05:14;;;;;;;8.55;2.97;;;;;;;3.77;43.89;99901.66;4936219;29;20047;-79
2022/03/23 07:09:31;;;;;;;8.57;3.30;;;;;;;4.09;44.06;99901.09;4950548;29;20482;-80
2022/03/23 07:10:27;;;;;;;5.40;2.97;;;;;;;4.27;43.57;99903.84;4936216;29;20059;-79
2022/03/23 07:12:54;;;;;;;8.63;3.42;;;;;;;4.37;43.30;99895.41;4950719;29;20507;-79
2022/03/23 07:15:20;;;;;;;5.07;2.58;;;;;;;4.43;43.07;99893.41;4950615;29;20134;-80
2022/03/23 07:17:46;;;;;;;9.07;3.15;;;;;;;4.43;43.32;99896.91;4935613;29;20150;-78
2022/03/23 07:20:12;;;;;;;7.72;3.03;;;;;;;4.66;43.28;99897.63;4950524;29;20040;-78
2022/03/23 07:22:37;;;;;;;6.53;2.75;;;;;;;4.84;42.64;99888.81;4935601;29;20107;-79
2022/03/23 07:25:05;;;;;;;16.08;3.03;;;;;;;4.91;42.11;99900.84;4950170;28;20059;-81
2022/03/23 07:27:31;;;;;;;5.10;2.63;;;;;;;5.01;42.86;99895.97;4935995;29;20060;-79
2022/03/23 07:29:57;;;;;;;13.73;3.22;;;;;;;5.22;42.36;99897.56;4934478;29;20142;-80
2022/03/23 07:32:23;;;;;;;5.78;3.00;;;;;;;5.37;41.76;99903.91;4950446;29;20051;-79
2022/03/23 07:34:49;;;;;;;7.97;3.08;;;;;;;5.39;41.67;99907.34;4935469;29;20051;-80
2022/03/23 07:37:15;;;;;;;4.78;3.20;;;;;;;5.14;41.99;99904.16;4935503;29;20052;-80
2022/03/23 07:39:42;;;;;;;10.52;2.90;;;;;;;5.24;41.78;99897.50;4918620;29;20194;-79
2022/03/23 07:42:08;;;;;;;10.02;3.42;;;;;;;5.38;41.90;99904.75;4950160;29;20134;-79
2022/03/23 07:44:34;;;;;;;9.43;2.65;;;;;;;5.23;41.70;99896.66;4935459;29;20455;-80
2022/03/23 07:47:02;;;;;;;5.05;3.03;;;;;;;5.07;42.78;99907.09;4934125;29;20562;-79
2022/03/23 07:49:28;;;;;;;9.68;3.33;;;;;;;5.26;42.39;99906.22;4934053;29;20047;-80
2022/03/23 07:51:54;;;;;;;6.45;2.97;;;;;;;5.09;42.60;99899.97;4949925;29;20055;-81
2022/03/23 07:54:20;;;;;;;9.05;3.25;;;;;;;5.36;42.38;99897.75;4934927;29;20126;-81
2022/03/23 07:56:46;;;;;;;5.22;3.08;;;;;;;5.63;42.34;99909.69;4950243;29;20154;-80
2022/03/23 07:59:12;;;;;;;5.82;2.80;;;;;;;5.63;41.86;99899.94;4933957;29;20046;-79
2022/03/23 08:01:38;;;;;;;9.93;3.10;;;;;;;5.54;41.38;99911.88;4918127;29;20134;-80
2022/03/23 08:04:05;;;;;;;6.20;3.03;;;;;;;5.55;41.66;99895.03;4918106;29;20059;-79
2022/03/23 08:06:35;;;;;;;7.40;2.67;;;;;;;5.69;41.60;99904.09;4949861;29;20412;-79
2022/03/23 08:09:02;;;;;;;7.68;2.53;;;;;;;5.86;41.14;99901.41;4935929;29;20130;-80
2022/03/23 08:11:29;;;;;;;7.80;3.08;;;;;;;5.96;41.19;99894.72;4937312;29;20517;-81
2022/03/23 08:13:54;;;;;;;8.43;2.78;;;;;;;6.02;41.04;99891.75;4938358;29;20051;-80
2022/03/23 08:16:20;;;;;;;5.78;3.05;;;;;;;6.13;41.25;99895.63;4921654;29;20054;-81
2022/03/23 08:18:46;;;;;;;9.07;3.10;;;;;;;6.30;41.06;99896.44;4953356;29;20168;-80
2022/03/23 08:21:12;;;;;;;6.38;3.22;;;;;;;6.43;40.88;99901.97;4921522;29;20103;-80
2022/03/23 08:23:40;;;;;;;6.00;3.45;;;;;;;6.31;40.67;99897.31;4937717;29;20047;-79
2022/03/23 08:26:09;;;;;;;7.28;3.10;;;;;;;6.46;40.73;99898.28;4934287;29;20055;-80
2022/03/23 08:28:38;;;;;;;7.57;3.20;;;;;;;6.73;40.67;99904.75;4918135;29;20559;-80
2022/03/23 08:31:04;;;;;;;5.75;3.30;;;;;;;6.75;40.20;99912.63;4919558;29;20036;-79
2022/03/23 08:33:32;;;;;;;7.35;2.90;;;;;;;6.95;40.55;99903.53;4919412;29;20044;-77
2022/03/23 08:35:59;;;;;;;7.10;3.00;;;;;;;7.05;40.00;99905.59;4919424;29;20579;-80
2022/03/23 08:38:25;;;;;;;9.60;3.28;;;;;;;7.27;39.83;99886.63;4919342;29;20040;-80
2022/03/23 08:40:51;;;;;;;9.15;3.15;;;;;;;7.20;39.51;99903.00;4919155;29;20048;-80
2022/03/23 08:43:16;;;;;;;12.75;3.45;;;;;;;7.25;39.95;99901.78;4933603;29;20065;-79
2022/03/23 08:45:42;;;;;;;7.72;3.55;;;;;;;7.23;39.92;99902.84;4917774;29;20048;-80
2022/03/23 08:48:09;;;;;;;6.93;2.80;;;;;;;7.34;40.07;99897.78;4917761;29;20052;-80
2022/03/23 08:50:36;;;;;;;5.47;2.63;;;;;;;7.48;39.80;99903.13;4917683;29;20416;-79
2022/03/23 08:53:03;;;;;;;8.60;3.03;;;;;;;7.64;40.00;99902.25;4919063;29;20058;-78
2022/03/23 08:55:30;;;;;;;7.03;3.42;;;;;;;7.70;40.00;99891.22;4933706;29;20493;-79
2022/03/23 08:57:56;;;;;;;7.47;3.35;;;;;;;7.77;39.80;99882.78;4917773;29;20048;-81
2022/03/23 09:00:22;;;;;;;7.70;3.42;;;;;;;7.95;39.31;99886.16;4933621;29;20048;-80
2022/03/23 09:02:48;;;;;;;6.88;2.78;;;;;;;8.04;39.02;99879.41;4918806;29;20044;-80
2022/03/23 09:05:14;;;;;;;6.30;3.20;;;;;;;8.21;39.12;99886.38;4918763;29;20044;-80
2022/03/23 09:07:43;;;;;;;9.55;3.05;;;;;;;8.35;38.82;99880.16;4918833;29;20134;-79
2022/03/23 09:10:11;;;;;;;6.18;2.83;;;;;;;8.46;38.53;99885.72;4917601;29;20047;-76
2022/03/23 09:12:38;;;;;;;6.07;3.10;;;;;;;8.26;38.86;99878.94;4919856;29;20107;-79
2022/03/23 09:15:05;;;;;;;9.38;3.42;;;;;;;8.54;39.01;99887.91;4933304;29;20047;-80
2022/03/23 09:17:31;;;;;;;8.05;3.10;;;;;;;8.54;38.99;99879.91;4918589;29;20051;-79
2022/03/23 09:20:00;;;;;;;9.32;2.97;;;;;;;8.55;38.50;99881.63;4932892;29;20040;-79
2022/03/23 09:22:28;;;;;;;6.78;3.08;;;;;;;8.55;38.81;99876.31;4917765;29;20048;-80
2022/03/23 09:24:54;;;;;;;8.55;3.00;;;;;;;8.51;39.22;99879.16;4927057;29;20056;-79
2022/03/23 09:27:19;;;;;;;7.95;3.15;;;;;;;8.62;39.09;99882.97;4936273;29;20091;-79
2022/03/23 09:29:46;;;;;;;8.38;3.17;;;;;;;8.84;38.66;99871.75;4952238;29;20078;-80
2022/03/23 09:32:12;;;;;;;10.18;3.00;;;;;;;8.96;38.06;99879.00;4937335;29;20089;-80
2022/03/23 09:34:39;;;;;;;5.63;2.88;;;;;;;9.02;38.00;99869.72;4937124;29;20044;-80
2022/03/23 09:39:51;;;;;;;5.80;2.80;;;;;;;9.21;38.16;99864.88;4937234;29;20108;-80
2022/03/23 09:42:18;;;;;;;8.98;2.78;;;;;;;9.23;38.06;99876.31;4935969;29;20074;-79
2022/03/23 09:44:48;;;;;;;11.95;3.50;;;;;;;9.38;37.93;99861.97;4951896;29;20047;-79
2022/03/23 09:47:15;;;;;;;6.72;3.20;;;;;;;9.47;37.73;99864.00;4937275;29;20138;-79
2022/03/23 09:49:42;;;;;;;10.35;3.40;;;;;;;9.49;37.73;99862.09;4937319;29;20399;-80
2022/03/23 09:52:08;;;;;;;7.70;2.85;;;;;;;9.44;37.91;99864.25;4935728;29;20559;-80
2022/03/23 09:54:34;;;;;;;8.35;2.97;;;;;;;9.32;37.66;99865.03;4951758;29;20135;-80
2022/03/23 09:57:00;;;;;;;7.10;2.85;;;;;;;9.15;38.37;99865.31;4936484;29;20488;-80
2022/03/23 09:59:26;;;;;;;10.57;2.97;;;;;;;9.36;37.71;99861.19;4951349;29;20069;-79
2022/03/23 10:01:51;;;;;;;9.27;3.28;;;;;;;9.58;37.76;99862.44;4936677;29;20040;-80
2022/03/23 10:04:20;;;;;;;8.07;3.15;;;;;;;9.59;37.83;99861.47;4951400;29;20039;-82
2022/03/23 10:07:04;;;;;;;7.03;3.20;;;;;;;9.51;37.71;99869.16;4951230;29;20055;-79
2022/03/23 10:10:01;;;;;;;12.25;3.15;;;;;;;9.34;38.48;99873.81;4935089;29;20307;-80
2022/03/23 10:13:04;;;;;;;5.72;2.95;;;;;;;9.66;37.85;99863.63;4956520;28;20059;-81
2022/03/23 10:16:07;;;;;;;8.02;3.10;;;;;;;9.93;37.94;99871.56;4966979;28;20051;-79
2022/03/23 10:18:52;;;;;;;5.05;2.60;;;;;;;10.21;37.49;99857.13;4952339;29;20051;-81
2022/03/23 10:21:24;;;;;;;7.25;3.05;;;;;;;10.37;37.39;99864.94;4936869;29;20039;-80
2022/03/23 10:23:59;;;;;;;6.13;2.90;;;;;;;10.55;37.05;99853.94;4918796;29;20050;-81
2022/03/23 10:26:27;;;;;;;6.82;2.78;;;;;;;10.88;36.73;99864.84;4935168;29;20059;-77
2022/03/23 10:28:53;;;;;;;9.52;2.92;;;;;;;11.09;36.46;99861.56;4916155;29;20534;-81
2022/03/23 10:31:23;;;;;;;5.70;2.80;;;;;;;11.34;36.08;99861.44;4915960;29;20048;-78
2022/03/23 10:34:07;;;;;;;6.53;2.60;;;;;;;11.70;36.04;99846.25;4910590;29;20048;-78
2022/03/23 10:36:34;;;;;;;6.05;3.03;;;;;;;12.10;35.58;99853.91;4935570;29;20051;-78
2022/03/23 10:39:05;;;;;;;6.00;2.60;;;;;;;12.37;34.36;99851.75;4949960;29;20043;-77
2022/03/23 10:41:31;;;;;;;5.38;2.80;;;;;;;12.64;34.18;99842.47;4933767;29;20044;-76
2022/03/23 10:43:58;;;;;;;6.97;2.70;;;;;;;12.85;33.66;99856.81;4918329;29;20043;-76
2022/03/23 10:46:24;;;;;;;4.45;2.50;;;;;;;13.07;33.29;99842.50;4918475;29;20063;-81
2022/03/23 10:49:01;;;;;;;5.78;3.08;;;;;;;13.23;32.17;99842.09;4950233;29;20145;-76
2022/03/23 10:51:32;;;;;;;10.13;3.20;;;;;;;13.46;32.58;99840.16;4935589;29;20046;-79
2022/03/23 10:54:12;;;;;;;8.77;3.25;;;;;;;13.58;32.54;99833.78;4933924;29;20051;-83
2022/03/23 10:56:39;;;;;;;5.45;3.00;;;;;;;13.68;31.97;99833.84;4934102;29;20058;-84
2022/03/23 10:59:25;;;;;;;7.50;2.83;;;;;;;13.70;31.52;99834.56;4934265;29;20099;-85
2022/03/23 11:02:01;;;;;;;7.85;3.65;;;;;;;13.22;32.16;99820.72;4918263;29;20139;-83
2022/03/23 11:04:29;;;;;;;6.97;3.30;;;;;;;13.56;32.33;99826.81;4950059;29;20111;-81
2022/03/23 11:06:59;;;;;;;9.07;3.58;;;;;;;13.82;31.07;99836.22;4934010;29;20440;-82
2022/03/23 11:18:17;;;;;;;5.28;3.00;;;;;;;14.12;30.57;99821.09;4934262;29;20044;-82
2022/03/23 11:20:56;;;;;;;7.03;2.85;;;;;;;14.31;30.27;99820.34;4919005;29;20132;-83
2022/03/23 11:23:28;;;;;;;6.93;3.45;;;;;;;14.33;30.83;99824.59;4950281;29;20075;-83
2022/03/23 11:25:56;;;;;;;10.32;3.28;;;;;;;14.42;30.82;99819.41;4945612;29;20066;-79
2022/03/23 11:28:23;;;;;;;7.57;3.10;;;;;;;14.52;30.01;99817.63;4937262;29;20079;-82
2022/03/23 11:30:50;;;;;;;5.97;3.40;;;;;;;14.36;30.81;99819.94;4969603;28;20066;-76
2022/03/23 11:33:21;;;;;;;10.88;3.42;;;;;;;14.37;30.25;99821.63;4954118;29;20058;-83
2022/03/23 11:35:49;;;;;;;7.32;3.25;;;;;;;14.46;30.53;99823.53;4945729;29;20043;-86
2022/03/23 11:38:17;;;;;;;12.23;3.75;;;;;;;14.67;30.41;99816.28;4949551;29;20079;-83
2022/03/23 11:40:45;;;;;;;7.22;3.33;;;;;;;14.88;30.13;99828.78;4933321;29;20043;-82
2022/03/23 11:43:16;;;;;;;6.47;3.40;;;;;;;14.91;29.86;99807.81;4933696;29;20066;-81
2022/03/23 11:45:44;;;;;;;9.32;3.67;;;;;;;15.13;30.34;99822.88;4938726;29;20048;-79
2022/03/23 11:48:37;;;;;;;7.60;3.97;;;;;;;15.07;29.84;99828.81;4937724;29;20063;-87
2022/03/23 11:51:25;;;;;;;7.50;3.65;;;;;;;14.92;30.27;99824.81;4937774;29;20102;-87
2022/03/23 11:53:58;;;;;;;15.10;3.72;;;;;;;14.90;30.12;99818.72;4937486;29;20055;-86
2022/03/23 11:56:28;;;;;;;8.52;3.33;;;;;;;15.00;30.10;99822.28;4921251;29;20082;-86
2022/03/23 11:58:54;;;;;;;7.85;3.83;;;;;;;15.15;30.34;99826.25;4938670;29;20040;-85